createdAt,value
2017-11-22T00:01:37.222Z,19.60
2017-11-22T00:04:06.340Z,19.97
2017-11-22T00:06:34.681Z,19.67
2017-11-22T00:09:03.056Z,21.23
2017-11-22T00:11:31.405Z,19.90
2017-11-22T00:13:59.970Z,19.00
2017-11-22T00:16:28.316Z,18.97
2017-11-22T00:18:57.449Z,18.80
2017-11-22T00:21:25.825Z,19.03
2017-11-22T00:23:54.178Z,18.53
2017-11-22T00:26:23.291Z,17.30
2017-11-22T00:28:51.673Z,17.20
2017-11-22T00:31:20.028Z,16.53
2017-11-22T00:33:49.145Z,16.40
2017-11-22T00:36:17.549Z,16.10
2017-11-22T00:38:45.938Z,16.97
2017-11-22T00:41:14.309Z,15.40
2017-11-22T00:43:42.861Z,15.97
2017-11-22T00:46:11.977Z,14.37
2017-11-22T00:48:40.341Z,15.17
2017-11-22T00:51:08.741Z,13.37
2017-11-22T00:53:37.107Z,14.60
2017-11-22T00:56:05.506Z,14.13
2017-11-22T00:58:33.852Z,13.87
2017-11-22T01:01:02.248Z,14.03
2017-11-22T01:03:30.635Z,13.33
2017-11-22T01:05:59.025Z,13.70
2017-11-22T01:08:27.505Z,13.27
2017-11-22T01:10:55.869Z,14.07
2017-11-22T01:13:24.214Z,14.20
2017-11-22T01:15:53.345Z,15.13
2017-11-22T01:18:21.692Z,14.33
2017-11-22T01:20:50.807Z,13.70
2017-11-22T01:23:19.156Z,14.20
2017-11-22T01:25:47.504Z,14.17
2017-11-22T01:28:16.193Z,13.70
2017-11-22T01:30:44.537Z,14.13
2017-11-22T01:33:12.934Z,13.93
2017-11-22T01:35:41.288Z,13.20
2017-11-22T01:38:09.666Z,14.13
2017-11-22T01:40:38.029Z,12.97
2017-11-22T01:43:07.149Z,13.93
2017-11-22T01:45:35.520Z,14.17
2017-11-22T01:48:03.889Z,13.43
2017-11-22T01:50:33.008Z,12.93
2017-11-22T01:53:01.376Z,13.60
2017-11-22T01:55:29.720Z,13.17
2017-11-22T01:57:58.105Z,13.73
2017-11-22T02:00:26.448Z,12.90
2017-11-22T02:03:06.805Z,13.17
2017-11-22T02:05:35.145Z,13.83
2017-11-22T02:08:03.588Z,14.03
2017-11-22T02:10:31.944Z,13.43
2017-11-22T02:13:00.298Z,12.97
2017-11-22T02:15:28.643Z,12.97
2017-11-22T02:17:57.770Z,12.17
2017-11-22T02:20:26.156Z,11.73
2017-11-22T02:22:54.543Z,11.87
2017-11-22T02:25:22.912Z,12.30
2017-11-22T02:27:51.268Z,11.93
2017-11-22T02:30:19.717Z,11.53
2017-11-22T02:32:48.083Z,10.97
2017-11-22T02:35:16.448Z,10.70
2017-11-22T02:37:44.832Z,10.63
2017-11-22T02:40:13.177Z,11.17
2017-11-22T02:42:41.612Z,11.03
2017-11-22T02:45:09.956Z,10.70
2017-11-22T02:47:39.238Z,10.63
2017-11-22T02:50:07.600Z,10.60
2017-11-22T02:52:35.951Z,9.53
2017-11-22T02:55:04.301Z,9.00
2017-11-22T02:57:32.661Z,9.20
2017-11-22T03:00:01.014Z,9.10
2017-11-22T03:02:30.158Z,8.47
2017-11-22T03:04:58.523Z,8.20
2017-11-22T03:07:26.901Z,9.50
2017-11-22T03:09:55.855Z,8.90
2017-11-22T03:12:24.195Z,8.87
2017-11-22T03:14:52.528Z,9.43
2017-11-22T03:17:20.936Z,9.50
2017-11-22T03:19:49.324Z,9.77
2017-11-22T03:22:17.853Z,9.03
2017-11-22T03:24:46.192Z,8.17
2017-11-22T03:27:14.537Z,9.13
2017-11-22T03:29:42.945Z,9.03
2017-11-22T03:32:11.305Z,9.00
2017-11-22T03:34:40.188Z,9.70
2017-11-22T03:37:08.537Z,8.70
2017-11-22T03:39:37.832Z,8.53
2017-11-22T03:42:06.272Z,8.70
2017-11-22T03:44:34.609Z,8.60
2017-11-22T03:47:03.716Z,8.93
2017-11-22T03:52:32.984Z,9.63
2017-11-22T03:55:01.334Z,8.37
2017-11-22T03:57:29.668Z,7.63
2017-11-22T03:59:58.036Z,8.50
2017-11-22T04:05:21.681Z,9.48
2017-11-22T04:07:52.856Z,8.20
2017-11-22T04:10:21.209Z,8.70
2017-11-22T04:12:49.589Z,8.17
2017-11-22T04:15:17.972Z,7.87
2017-11-22T04:17:46.310Z,8.07
2017-11-22T04:20:21.179Z,7.00
2017-11-22T04:22:49.509Z,7.47
2017-11-22T04:25:17.846Z,6.60
2017-11-22T04:27:46.230Z,7.37
2017-11-22T04:30:14.766Z,7.50
2017-11-22T04:32:43.945Z,7.37
2017-11-22T04:35:12.281Z,6.97
2017-11-22T04:37:40.637Z,6.47
2017-11-22T04:40:08.979Z,7.47
2017-11-22T04:42:37.308Z,6.57
2017-11-22T04:45:05.680Z,6.70
2017-11-22T04:47:34.065Z,6.90
2017-11-22T04:50:02.654Z,6.43
2017-11-22T04:52:30.997Z,6.80
2017-11-22T04:55:00.121Z,6.60
2017-11-22T04:57:28.526Z,6.47
2017-11-22T04:59:56.865Z,6.40
2017-11-22T05:02:25.973Z,6.10
2017-11-22T05:04:54.313Z,5.37
2017-11-22T05:07:22.729Z,6.50
2017-11-22T05:09:51.049Z,6.17
2017-11-22T05:12:19.403Z,6.10
2017-11-22T05:14:47.741Z,5.67
2017-11-22T05:17:16.862Z,6.27
2017-11-22T05:19:45.985Z,5.50
2017-11-22T05:22:14.306Z,5.90
2017-11-22T05:24:42.632Z,5.50
2017-11-22T05:27:10.986Z,6.03
2017-11-22T05:29:39.435Z,5.67
2017-11-22T05:32:07.948Z,5.93
2017-11-22T05:34:36.291Z,5.67
2017-11-22T05:37:04.662Z,5.53
2017-11-22T05:39:32.991Z,5.87
2017-11-22T05:42:01.326Z,5.57
2017-11-22T05:44:29.681Z,5.90
2017-11-22T05:46:58.026Z,6.10
2017-11-22T05:49:26.424Z,5.23
2017-11-22T05:51:54.801Z,6.13
2017-11-22T05:54:23.127Z,6.30
2017-11-22T05:56:51.465Z,5.50
2017-11-22T05:59:19.836Z,6.00
2017-11-22T06:01:48.153Z,5.73
2017-11-22T06:04:16.602Z,5.27
2017-11-22T06:06:44.942Z,5.43
2017-11-22T06:09:14.044Z,5.73
2017-11-22T06:11:42.385Z,5.70
2017-11-22T06:14:10.743Z,5.63
2017-11-22T06:16:39.205Z,5.73
2017-11-22T06:19:07.541Z,6.07
2017-11-22T06:21:35.960Z,5.47
2017-11-22T06:24:04.292Z,5.40
2017-11-22T06:26:32.676Z,5.90
2017-11-22T06:29:01.097Z,6.13
2017-11-22T06:31:29.443Z,6.67
2017-11-22T06:33:57.834Z,6.00
2017-11-22T06:36:26.941Z,6.53
2017-11-22T06:38:55.325Z,6.67
2017-11-22T06:41:23.708Z,7.17
2017-11-22T06:43:52.054Z,6.70
2017-11-22T06:46:21.203Z,6.97
2017-11-22T06:48:49.525Z,6.17
2017-11-22T06:51:23.273Z,6.30
2017-11-22T06:53:51.622Z,7.07
2017-11-22T06:56:19.975Z,6.40
2017-11-22T06:58:48.324Z,6.60
2017-11-22T07:01:23.300Z,6.70
2017-11-22T07:03:59.423Z,6.57
2017-11-22T07:06:27.750Z,6.37
2017-11-22T07:08:57.024Z,6.80
2017-11-22T07:11:25.381Z,7.10
2017-11-22T07:13:54.207Z,7.27
2017-11-22T07:16:26.523Z,6.87
2017-11-22T07:18:54.857Z,6.87
2017-11-22T07:21:23.192Z,6.50
2017-11-22T07:23:51.961Z,6.60
2017-11-22T07:26:21.047Z,6.63
2017-11-22T07:28:49.412Z,6.90
2017-11-22T07:31:18.645Z,6.30
2017-11-22T07:33:47.008Z,6.30
2017-11-22T07:36:21.033Z,6.77
2017-11-22T07:38:49.385Z,6.30
2017-11-22T07:41:18.478Z,6.50
2017-11-22T07:43:47.706Z,7.07
2017-11-22T07:46:16.048Z,6.83
2017-11-22T07:48:45.136Z,6.77
2017-11-22T07:51:19.206Z,7.40
2017-11-22T07:53:47.562Z,6.50
2017-11-22T07:56:15.908Z,6.60
2017-11-22T07:58:46.902Z,6.60
2017-11-22T08:01:15.248Z,6.77
2017-11-22T08:03:45.525Z,7.03
2017-11-22T08:06:13.861Z,6.50
2017-11-22T08:08:42.721Z,6.33
2017-11-22T08:11:11.048Z,6.47
2017-11-22T08:13:39.370Z,6.27
2017-11-22T08:16:07.725Z,6.27
2017-11-22T08:18:36.059Z,6.23
2017-11-22T08:21:04.435Z,7.07
2017-11-22T08:23:33.549Z,6.97
2017-11-22T08:26:06.437Z,6.80
2017-11-22T08:28:34.753Z,6.57
2017-11-22T08:31:03.089Z,7.03
2017-11-22T08:33:31.437Z,7.10
2017-11-22T08:36:00.538Z,7.10
2017-11-22T08:38:29.661Z,6.83
2017-11-22T08:40:58.013Z,7.07
2017-11-22T08:43:32.983Z,7.00
2017-11-22T08:46:02.038Z,7.10
2017-11-22T08:48:31.981Z,7.03
2017-11-22T08:51:00.699Z,7.30
2017-11-22T08:53:29.049Z,7.37
2017-11-22T08:56:03.488Z,6.93
2017-11-22T08:58:31.944Z,7.63
2017-11-22T09:01:00.288Z,7.23
2017-11-22T09:03:35.166Z,7.90
2017-11-22T09:06:09.161Z,7.30
2017-11-22T09:08:37.518Z,7.73
2017-11-22T09:11:05.864Z,7.23
2017-11-22T09:13:34.192Z,7.50
2017-11-22T09:16:02.880Z,7.03
2017-11-22T09:18:39.000Z,6.80
2017-11-22T09:21:10.340Z,7.50
2017-11-22T09:23:38.886Z,7.57
2017-11-22T09:26:07.218Z,7.23
2017-11-22T09:28:35.654Z,7.30
2017-11-22T09:31:09.732Z,7.10
2017-11-22T09:33:38.863Z,7.20
2017-11-22T09:36:07.212Z,7.63
2017-11-22T09:38:36.305Z,6.80
2017-11-22T09:41:05.411Z,6.80
2017-11-22T09:43:33.749Z,6.60
2017-11-22T09:46:02.586Z,7.17
2017-11-22T09:48:30.958Z,7.90
2017-11-22T09:53:34.472Z,7.20
2017-11-22T09:56:02.814Z,7.50
2017-11-22T09:58:31.172Z,7.40
2017-11-22T10:00:59.525Z,7.27
2017-11-22T10:03:27.868Z,6.87
2017-11-22T10:05:56.287Z,7.10
2017-11-22T10:08:24.624Z,6.87
2017-11-22T10:10:53.069Z,7.40
2017-11-22T10:13:21.396Z,7.07
2017-11-22T10:15:50.546Z,7.80
2017-11-22T10:18:18.882Z,6.90
2017-11-22T10:20:50.254Z,7.03
2017-11-22T10:23:27.073Z,7.50
2017-11-22T10:25:55.441Z,7.83
2017-11-22T10:28:23.756Z,7.57
2017-11-22T10:30:53.125Z,7.13
2017-11-22T10:33:27.397Z,7.90
2017-11-22T10:35:57.706Z,7.73
2017-11-22T10:38:26.063Z,7.80
2017-11-22T10:40:54.592Z,7.57
2017-11-22T10:43:23.804Z,7.63
2017-11-22T10:45:52.181Z,7.70
2017-11-22T10:48:20.525Z,8.17
2017-11-22T10:50:48.870Z,7.30
2017-11-22T10:53:17.348Z,7.73
2017-11-22T10:55:45.669Z,7.23
2017-11-22T10:58:14.102Z,7.93
2017-11-22T11:00:42.436Z,8.30
2017-11-22T11:03:10.765Z,7.23
2017-11-22T11:05:39.101Z,7.60
2017-11-22T11:08:07.432Z,7.57
2017-11-22T11:10:35.858Z,7.83
2017-11-22T11:13:04.191Z,8.20
2017-11-22T11:15:32.525Z,6.70
2017-11-22T11:18:00.866Z,7.67
2017-11-22T11:20:30.117Z,8.50
2017-11-22T11:25:32.165Z,7.43
2017-11-22T11:28:00.538Z,7.70
2017-11-22T11:30:28.877Z,7.53
2017-11-22T11:32:57.229Z,8.30
2017-11-22T11:35:37.310Z,7.07
2017-11-22T11:38:05.639Z,7.70
2017-11-22T11:40:34.433Z,7.30
2017-11-22T11:43:03.115Z,7.77
2017-11-22T11:45:31.494Z,7.53
2017-11-22T11:48:00.709Z,7.70
2017-11-22T11:50:31.940Z,8.07
2017-11-22T11:53:00.321Z,8.00
2017-11-22T11:55:28.661Z,7.73
2017-11-22T11:57:57.086Z,7.83
2017-11-22T12:00:25.426Z,6.90
2017-11-22T12:02:54.547Z,7.47
2017-11-22T12:05:22.907Z,7.33
2017-11-22T12:07:52.032Z,8.03
2017-11-22T12:10:21.334Z,7.80
2017-11-22T12:12:49.697Z,7.10
2017-11-22T12:15:18.078Z,6.90
2017-11-22T12:17:46.446Z,6.83
2017-11-22T12:20:14.849Z,7.70
2017-11-22T12:22:43.985Z,8.03
2017-11-22T12:25:12.339Z,7.50
2017-11-22T12:27:41.236Z,7.03
2017-11-22T12:30:09.615Z,7.73
2017-11-22T12:32:37.971Z,8.13
2017-11-22T12:35:06.301Z,7.80
2017-11-22T12:37:34.679Z,7.53
2017-11-22T12:40:03.122Z,8.33
2017-11-22T12:42:33.337Z,7.27
2017-11-22T12:45:01.665Z,8.20
2017-11-22T12:47:30.696Z,7.80
2017-11-22T12:49:59.804Z,7.93
2017-11-22T12:52:28.177Z,7.40
2017-11-22T12:54:56.517Z,8.90
2017-11-22T12:57:24.857Z,7.80
2017-11-22T12:59:53.217Z,8.13
2017-11-22T13:02:21.555Z,8.67
2017-11-22T13:04:50.669Z,8.23
2017-11-22T13:07:19.782Z,8.40
2017-11-22T13:09:48.121Z,7.77
2017-11-22T13:12:16.556Z,8.97
2017-11-22T13:14:44.887Z,8.43
2017-11-22T13:17:13.224Z,8.17
2017-11-22T13:19:41.565Z,8.37
2017-11-22T13:22:09.968Z,8.90
2017-11-22T13:24:38.331Z,9.00
2017-11-22T13:27:06.812Z,8.67
2017-11-22T13:29:35.164Z,8.57
2017-11-22T13:32:04.277Z,9.30
2017-11-22T13:34:32.657Z,9.63
2017-11-22T13:37:01.029Z,9.63
2017-11-22T13:39:30.227Z,9.77
2017-11-22T13:41:58.605Z,9.43
2017-11-22T13:44:27.729Z,10.40
2017-11-22T13:46:56.130Z,9.10
2017-11-22T13:49:24.476Z,9.23
2017-11-22T13:51:52.864Z,9.00
2017-11-22T13:54:21.246Z,9.30
2017-11-22T13:56:49.694Z,8.77
2017-11-22T13:59:18.805Z,8.77
2017-11-22T14:01:47.232Z,8.87
2017-11-22T14:04:15.581Z,8.27
2017-11-22T14:06:43.943Z,9.03
2017-11-22T14:09:12.304Z,8.33
2017-11-22T14:11:41.411Z,8.77
2017-11-22T14:14:10.643Z,7.93
2017-11-22T14:16:39.857Z,8.67
2017-11-22T14:19:08.220Z,7.63
2017-11-22T14:21:36.561Z,7.43
2017-11-22T14:24:05.652Z,8.00
2017-11-22T14:26:33.997Z,8.00
2017-11-22T14:29:02.334Z,7.57
2017-11-22T14:31:35.049Z,7.47
2017-11-22T14:34:03.388Z,8.20
2017-11-22T14:36:32.480Z,7.13
2017-11-22T14:39:04.955Z,7.00
2017-11-22T14:41:33.297Z,7.50
2017-11-22T14:44:01.779Z,7.07
2017-11-22T14:46:30.101Z,7.20
2017-11-22T14:48:58.817Z,7.27
2017-11-22T14:51:27.182Z,7.50
2017-11-22T14:53:55.513Z,7.27
2017-11-22T14:56:23.862Z,8.00
2017-11-22T14:58:52.701Z,7.57
2017-11-22T15:01:21.886Z,7.90
2017-11-22T15:03:56.459Z,7.93
2017-11-22T15:06:24.826Z,8.27
2017-11-22T15:08:54.365Z,7.63
2017-11-22T15:11:22.825Z,7.97
2017-11-22T15:13:51.198Z,8.37
2017-11-22T15:16:20.111Z,9.40
2017-11-22T15:18:48.454Z,8.23
2017-11-22T15:21:16.822Z,10.07
2017-11-22T15:23:45.226Z,9.23
2017-11-22T15:26:15.448Z,8.50
2017-11-22T15:28:44.426Z,8.57
2017-11-22T15:31:12.765Z,8.43
2017-11-22T15:33:41.211Z,7.93
2017-11-22T15:36:10.045Z,7.90
2017-11-22T15:38:38.389Z,8.17
2017-11-22T15:41:06.722Z,8.13
2017-11-22T15:43:35.940Z,7.87
2017-11-22T15:46:04.271Z,8.73
2017-11-22T15:48:32.654Z,9.10
2017-11-22T15:51:01.066Z,9.33
2017-11-22T15:53:29.452Z,8.77
2017-11-22T15:55:57.825Z,8.60
2017-11-22T15:58:27.190Z,8.50
2017-11-22T16:00:55.517Z,9.27
2017-11-22T16:03:24.007Z,8.10
2017-11-22T16:05:52.353Z,8.60
2017-11-22T16:08:21.497Z,8.43
2017-11-22T16:10:49.938Z,8.73
2017-11-22T16:13:19.068Z,8.40
2017-11-22T16:15:47.452Z,8.30
2017-11-22T16:18:15.814Z,8.63
2017-11-22T16:20:44.233Z,8.83
2017-11-22T16:23:12.590Z,9.27
2017-11-22T16:25:40.951Z,9.90
2017-11-22T16:28:09.300Z,9.40
2017-11-22T16:30:38.408Z,8.93
2017-11-22T16:33:07.520Z,9.57
2017-11-22T16:35:36.632Z,8.50
2017-11-22T16:38:06.625Z,9.40
2017-11-22T16:40:35.013Z,9.37
2017-11-22T16:43:03.375Z,10.40
2017-11-22T16:45:32.496Z,9.97
2017-11-22T16:48:01.728Z,9.60
2017-11-22T16:50:30.969Z,9.53
2017-11-22T16:53:00.120Z,9.50
2017-11-22T16:55:29.370Z,9.47
2017-11-22T16:57:58.531Z,9.83
2017-11-22T17:00:26.998Z,9.70
2017-11-22T17:02:55.369Z,8.83
2017-11-22T17:05:23.702Z,10.07
2017-11-22T17:07:52.105Z,10.13
2017-11-22T17:10:20.506Z,8.90
2017-11-22T17:12:48.832Z,7.90
2017-11-22T17:15:17.208Z,8.57
2017-11-22T17:17:45.710Z,8.40
2017-11-22T17:20:14.804Z,8.20
2017-11-22T17:22:44.133Z,8.60
2017-11-22T17:25:12.464Z,8.80
2017-11-22T17:27:40.901Z,8.30
2017-11-22T17:30:09.229Z,8.03
2017-11-22T17:32:38.387Z,9.00
2017-11-22T17:35:06.713Z,9.23
2017-11-22T17:37:35.118Z,9.33
2017-11-22T17:40:03.465Z,9.90
2017-11-22T17:42:32.579Z,9.87
2017-11-22T17:45:01.104Z,9.37
2017-11-22T17:47:34.878Z,10.10
2017-11-22T17:50:08.632Z,10.03
2017-11-22T17:52:42.594Z,10.10
2017-11-22T17:55:16.413Z,10.03
2017-11-22T17:57:50.152Z,10.17
2017-11-22T18:00:24.007Z,10.10
2017-11-22T18:02:57.721Z,11.03
2017-11-22T18:05:31.449Z,10.10
2017-11-22T18:08:05.745Z,10.57
2017-11-22T18:10:40.478Z,11.07
2017-11-22T18:13:14.274Z,11.30
2017-11-22T18:15:48.898Z,10.93
2017-11-22T18:18:23.674Z,10.23
2017-11-22T18:20:57.435Z,10.43
2017-11-22T18:23:31.265Z,10.00
2017-11-22T18:26:04.990Z,9.47
2017-11-22T18:28:39.651Z,10.47
2017-11-22T18:31:13.748Z,10.60
2017-11-22T18:33:47.506Z,9.67
2017-11-22T18:36:22.386Z,10.10
2017-11-22T18:38:56.392Z,9.73
2017-11-22T18:41:31.690Z,9.73
2017-11-22T18:44:05.603Z,8.73
2017-11-22T18:46:39.329Z,9.67
2017-11-22T18:49:13.188Z,9.20
2017-11-22T18:51:46.913Z,9.17
2017-11-22T18:54:21.396Z,9.87
2017-11-22T18:56:55.513Z,9.93
2017-11-22T18:59:29.234Z,9.80
2017-11-22T19:02:03.078Z,10.43
2017-11-22T19:04:37.656Z,10.67
2017-11-22T19:07:11.562Z,10.30
2017-11-22T19:09:45.285Z,10.13
2017-11-22T19:12:19.009Z,10.60
2017-11-22T19:14:53.490Z,10.27
2017-11-22T19:17:27.505Z,9.20
2017-11-22T19:20:01.485Z,9.50
2017-11-22T19:22:35.312Z,9.20
2017-11-22T19:25:10.322Z,9.63
2017-11-22T19:27:43.997Z,9.77
2017-11-22T19:30:18.575Z,9.80
2017-11-22T19:32:52.272Z,10.67
2017-11-22T19:35:26.121Z,10.87
2017-11-22T19:38:00.388Z,11.23
2017-11-22T19:40:34.765Z,11.00
2017-11-22T19:44:20.552Z,11.55
2017-11-22T19:46:48.998Z,10.20
2017-11-22T19:49:18.123Z,10.43
2017-11-22T19:51:46.493Z,10.10
2017-11-22T19:54:14.998Z,10.60
2017-11-22T19:56:43.358Z,10.73
2017-11-22T19:59:12.485Z,10.60
2017-11-22T20:01:40.857Z,10.50
2017-11-22T20:04:09.217Z,10.27
2017-11-22T20:06:37.549Z,11.03
2017-11-22T20:09:05.897Z,10.43
2017-11-22T20:11:34.322Z,10.67
2017-11-22T20:14:03.431Z,10.47
2017-11-22T20:16:32.671Z,10.30
2017-11-22T20:19:01.026Z,10.83
2017-11-22T20:21:29.370Z,11.20
2017-11-22T20:23:57.856Z,10.67
2017-11-22T20:26:27.113Z,10.63
2017-11-22T20:28:55.537Z,10.33
2017-11-22T20:31:24.660Z,10.73
2017-11-22T20:33:53.139Z,10.43
2017-11-22T20:36:21.488Z,10.70
2017-11-22T20:38:49.821Z,11.03
2017-11-22T20:41:18.202Z,10.40
2017-11-22T20:43:46.563Z,10.03
2017-11-22T20:46:14.927Z,9.77
2017-11-22T20:48:44.131Z,9.80
2017-11-22T20:51:12.512Z,10.27
2017-11-22T20:53:40.917Z,9.10
2017-11-22T20:56:09.933Z,9.13
2017-11-22T20:58:38.326Z,8.80
2017-11-22T21:01:06.679Z,9.20
2017-11-22T21:03:35.039Z,9.30
2017-11-22T21:06:03.398Z,8.90
2017-11-22T21:08:32.524Z,9.17
2017-11-22T21:11:00.878Z,8.77
2017-11-22T21:13:29.217Z,8.93
2017-11-22T21:15:57.563Z,8.00
2017-11-22T21:18:26.024Z,8.27
2017-11-22T21:20:54.401Z,8.03
2017-11-22T21:23:22.791Z,8.00
2017-11-22T21:25:51.188Z,7.60
2017-11-22T21:28:20.051Z,8.60
2017-11-22T21:30:48.418Z,7.77
2017-11-22T21:33:17.710Z,8.07
2017-11-22T21:35:46.422Z,7.70
2017-11-22T21:38:14.821Z,7.20
2017-11-22T21:40:43.305Z,7.90
2017-11-22T21:43:11.662Z,7.70
2017-11-22T21:45:40.010Z,6.93
2017-11-22T21:48:09.112Z,7.17
2017-11-22T21:50:37.467Z,7.23
2017-11-22T21:53:05.905Z,7.73
2017-11-22T21:55:34.258Z,7.30
2017-11-22T21:58:02.602Z,7.70
2017-11-22T22:00:31.070Z,7.20
2017-11-22T22:02:59.390Z,7.00
2017-11-22T22:05:28.121Z,7.00
2017-11-22T22:07:56.525Z,7.03
2017-11-22T22:10:24.872Z,6.67
2017-11-22T22:12:53.412Z,6.47
2017-11-22T22:15:22.631Z,6.60
2017-11-22T22:17:51.069Z,6.27
2017-11-22T22:20:19.437Z,6.80
2017-11-22T22:22:48.447Z,6.53
2017-11-22T22:25:16.805Z,6.10
2017-11-22T22:27:45.128Z,6.10
2017-11-22T22:30:14.243Z,6.27
2017-11-22T22:32:42.569Z,6.03
2017-11-22T22:35:10.899Z,6.73
2017-11-22T22:37:39.293Z,6.13
2017-11-22T22:40:07.631Z,6.27
2017-11-22T22:42:36.754Z,6.10
2017-11-22T22:45:05.121Z,6.00
2017-11-22T22:47:33.455Z,5.20
2017-11-22T22:50:01.868Z,6.20
2017-11-22T22:52:31.128Z,6.20
2017-11-22T22:54:59.486Z,5.63
2017-11-22T22:57:27.809Z,6.13
2017-11-22T22:59:56.161Z,5.27
2017-11-22T23:02:24.484Z,5.53
2017-11-22T23:04:52.839Z,5.87
2017-11-22T23:07:21.190Z,5.50
2017-11-22T23:09:49.520Z,5.40
2017-11-22T23:12:18.009Z,4.97
2017-11-22T23:14:47.094Z,5.73
2017-11-22T23:17:16.234Z,5.30
2017-11-22T23:19:44.584Z,4.33
2017-11-22T23:22:12.910Z,4.60
2017-11-22T23:24:41.266Z,5.40
2017-11-22T23:27:09.596Z,4.77
2017-11-22T23:29:38.866Z,4.60
2017-11-22T23:32:07.213Z,4.37
2017-11-22T23:34:35.559Z,4.50
2017-11-22T23:37:04.684Z,4.50
2017-11-22T23:39:33.012Z,4.77
2017-11-22T23:42:01.384Z,4.17
2017-11-22T23:44:29.775Z,4.93
2017-11-22T23:46:58.119Z,4.30
2017-11-22T23:49:26.790Z,4.03
2017-11-22T23:51:55.133Z,3.53
2017-11-22T23:54:23.444Z,4.03
2017-11-22T23:56:51.793Z,3.43
2017-11-22T23:59:20.884Z,4.00
